OISA  Abadeh  Airport

Abadeh, Iran

Add Bookmark
ICAO OISA
Type Airport
Status Operational
Latitude
31° 10' 0" N
31.166668
Longitude
52° 40' 0" E
52.666668
Local (GMT +4.5 ) UTC
Aug 28, 2016 11:18 am Aug 28, 2016 06:48
Sunrise-Sunset Local UTC
Begin Civil Twilight 06:07 am 01:37
Sunrise 06:32 am 02:02
Sunset 07:28 pm 14:58
End Civil Twilight 07:53 pm 15:23
VFR
VFR
MVFR
MVFR
IFR
IFR
LIFR
LIFR
Unknown
Unavailable

Current Weather

METAR Observed VFR
OISA 280500Z 35008KT CAVOK 23/M05 Q1026 Sun, Aug 28, 2016 @ 05:00 UTC
(1 Hour, 48 Minutes ago)
Visual Flight Rules
Wind Visibility Conditions
350° at 8 knots (15 kph) 10 km or more
  • No significant weather
Temperatures Readings Precipitation
Current Temp
23°C
73°F
Dewpoint
-5°C
23°F
Humidity 15%
Altimeter 30.3" Hg
Sea Level Pressure 1,026 mb
Field Elevation
2,004 m
6,575 ft
None Recorded
-
-

CheckWX.com is intended as a tool to help pilots better visualize weather data. It is not intended as a substitute for an official weather briefing obtained from a Flight Service Station. CheckWX.com does not meet the FAA requirements for an official pre-flight weather briefing. Therefore, it's important that pilots still call and obtain an official FSS pre-flight weather briefing.

© 2007-2016 CheckWX.com
06:48:10 UTC